createdAt,value
2022-09-22T00:00:27.131Z,4.33
2022-09-22T00:03:14.582Z,4.70
2022-09-22T00:06:03.152Z,4.40
2022-09-22T00:08:52.597Z,4.43
2022-09-22T00:11:43.408Z,4.00
2022-09-22T00:14:30.825Z,4.33
2022-09-22T00:17:19.393Z,3.63
2022-09-22T00:20:07.475Z,3.30
2022-09-22T00:22:54.621Z,3.67
2022-09-22T00:25:42.077Z,3.17
2022-09-22T00:28:29.025Z,3.50
2022-09-22T00:31:18.683Z,3.50
2022-09-22T00:34:08.089Z,3.70
2022-09-22T00:36:56.143Z,3.30
2022-09-22T00:39:43.377Z,3.20
2022-09-22T00:42:30.594Z,3.03
2022-09-22T00:45:17.750Z,3.10
2022-09-22T00:48:05.097Z,2.87
2022-09-22T00:50:55.463Z,3.03
2022-09-22T00:53:43.306Z,3.20
2022-09-22T00:56:34.921Z,3.50
2022-09-22T00:59:24.350Z,3.33
2022-09-22T01:02:12.072Z,3.13
2022-09-22T01:04:59.600Z,2.87
2022-09-22T01:07:49.685Z,2.90
2022-09-22T01:10:36.908Z,3.23
2022-09-22T01:13:28.288Z,3.30
2022-09-22T01:16:35.780Z,3.67
2022-09-22T01:19:46.041Z,3.00
2022-09-22T01:22:59.136Z,2.60
2022-09-22T01:26:08.958Z,2.83
2022-09-22T01:29:36.247Z,3.00
2022-09-22T01:32:31.315Z,3.23
2022-09-22T01:35:25.162Z,3.03
2022-09-22T01:38:16.146Z,3.23
2022-09-22T01:41:08.179Z,2.80
2022-09-22T01:44:01.006Z,2.80
2022-09-22T01:46:55.754Z,2.80
2022-09-22T01:49:49.199Z,2.60
2022-09-22T01:52:37.417Z,3.10
2022-09-22T01:55:28.419Z,2.60
2022-09-22T01:58:18.476Z,2.73
2022-09-22T02:01:13.762Z,2.60
2022-09-22T02:04:07.039Z,2.73
2022-09-22T02:06:59.791Z,2.83
2022-09-22T02:09:50.073Z,2.37
2022-09-22T02:12:37.381Z,2.70
2022-09-22T02:15:42.192Z,3.00
2022-09-22T02:18:33.111Z,2.53
2022-09-22T02:21:22.141Z,2.60
2022-09-22T02:24:30.073Z,2.80
2022-09-22T02:27:25.625Z,2.20
2022-09-22T02:30:14.158Z,2.50
2022-09-22T02:33:02.193Z,2.37
2022-09-22T02:35:57.136Z,2.60
2022-09-22T02:38:49.299Z,2.70
2022-09-22T02:41:47.961Z,2.37
2022-09-22T02:44:44.956Z,2.53
2022-09-22T02:47:36.482Z,2.47
2022-09-22T02:50:26.426Z,2.90
2022-09-22T02:53:15.635Z,2.50
2022-09-22T02:56:03.658Z,3.00
2022-09-22T02:58:56.290Z,3.00
2022-09-22T03:01:45.466Z,2.40
2022-09-22T03:04:33.219Z,2.53
2022-09-22T03:07:20.519Z,2.40
2022-09-22T03:10:09.603Z,2.63
2022-09-22T03:13:15.488Z,2.80
2022-09-22T03:16:06.492Z,2.43
2022-09-22T03:18:53.854Z,2.67
2022-09-22T03:21:41.240Z,2.23
2022-09-22T03:24:28.484Z,2.33
2022-09-22T03:27:15.749Z,2.30
2022-09-22T03:30:04.052Z,2.50
2022-09-22T03:32:52.662Z,2.20
2022-09-22T03:35:39.925Z,2.20
2022-09-22T03:38:27.289Z,2.50
2022-09-22T03:41:14.586Z,2.50
2022-09-22T03:44:01.761Z,2.43
2022-09-22T03:46:48.754Z,2.80
2022-09-22T03:49:37.597Z,2.47
2022-09-22T03:52:25.586Z,2.57
2022-09-22T03:55:12.708Z,2.13
2022-09-22T03:57:59.751Z,2.50
2022-09-22T04:00:47.041Z,2.40
2022-09-22T04:03:35.393Z,2.40
2022-09-22T04:06:23.887Z,2.73
2022-09-22T04:09:11.356Z,2.50
2022-09-22T04:11:58.643Z,2.40
2022-09-22T04:14:45.902Z,2.20
2022-09-22T04:17:33.074Z,2.67
2022-09-22T04:20:19.959Z,2.10
2022-09-22T04:23:08.470Z,2.17
2022-09-22T04:25:55.868Z,2.23
2022-09-22T04:28:43.028Z,2.60
2022-09-22T04:31:30.330Z,3.60
2022-09-22T04:34:17.382Z,3.20
2022-09-22T04:37:04.949Z,2.90
2022-09-22T04:39:54.272Z,2.87
2022-09-22T04:42:41.325Z,3.17
2022-09-22T04:45:28.402Z,3.00
2022-09-22T04:48:15.720Z,3.13
2022-09-22T04:51:02.893Z,2.53
2022-09-22T04:53:50.086Z,3.27
2022-09-22T04:56:38.777Z,2.70
2022-09-22T04:59:26.353Z,2.97
2022-09-22T05:02:13.647Z,3.20
2022-09-22T05:05:00.675Z,3.23
2022-09-22T05:07:49.517Z,3.60
2022-09-22T05:10:37.219Z,3.40
2022-09-22T05:13:26.386Z,3.60
2022-09-22T05:16:13.807Z,3.50
2022-09-22T05:19:01.432Z,3.80
2022-09-22T05:21:48.732Z,3.70
2022-09-22T05:24:36.056Z,3.20
2022-09-22T05:27:23.273Z,3.80
2022-09-22T05:30:12.994Z,3.93
2022-09-22T05:33:00.082Z,3.90
2022-09-22T05:35:47.425Z,4.40
2022-09-22T05:38:34.657Z,6.60
2022-09-22T05:41:21.695Z,7.87
2022-09-22T05:44:08.788Z,6.77
2022-09-22T05:46:57.226Z,6.80
2022-09-22T05:49:44.519Z,5.67
2022-09-22T05:52:31.920Z,6.70
2022-09-22T05:55:19.455Z,5.63
2022-09-22T05:58:09.150Z,5.27
2022-09-22T06:00:58.460Z,5.70
2022-09-22T06:03:46.787Z,4.63
2022-09-22T06:06:34.320Z,5.40
2022-09-22T06:09:21.271Z,4.50
2022-09-22T06:12:08.927Z,4.50
2022-09-22T06:14:56.750Z,4.45
2022-09-22T06:17:43.714Z,3.90
2022-09-22T06:20:32.052Z,4.28
2022-09-22T06:23:19.107Z,4.50
2022-09-22T06:26:06.814Z,3.63
2022-09-22T06:28:54.310Z,2.72
2022-09-22T06:31:41.987Z,2.78
2022-09-22T06:34:29.004Z,3.10
2022-09-22T06:37:19.649Z,3.50
2022-09-22T06:40:08.625Z,2.92
2022-09-22T06:42:59.056Z,2.70
2022-09-22T06:45:46.966Z,1.88
2022-09-22T06:48:35.129Z,2.10
2022-09-22T06:51:21.802Z,1.90
2022-09-22T06:54:10.324Z,1.70
2022-09-22T06:56:57.617Z,1.70
2022-09-22T06:59:45.651Z,1.90
2022-09-22T07:02:32.897Z,1.88
2022-09-22T07:05:21.024Z,1.77
2022-09-22T07:08:08.862Z,1.77
2022-09-22T07:10:59.171Z,2.10
2022-09-22T07:13:46.409Z,1.95
2022-09-22T07:16:33.686Z,1.98
2022-09-22T07:19:21.111Z,2.15
2022-09-22T07:22:08.668Z,1.83
2022-09-22T07:24:55.799Z,1.70
2022-09-22T07:27:44.621Z,1.90
2022-09-22T07:30:31.645Z,1.40
2022-09-22T07:33:19.743Z,1.50
2022-09-22T07:36:09.905Z,1.30
2022-09-22T07:38:59.129Z,1.45
2022-09-22T07:41:48.000Z,1.20
2022-09-22T07:44:54.202Z,1.13
2022-09-22T07:47:59.183Z,1.20
2022-09-22T07:50:55.013Z,1.30
2022-09-22T07:53:42.242Z,1.33
2022-09-22T07:56:30.935Z,1.40
2022-09-22T07:59:18.299Z,1.25
2022-09-22T08:02:06.648Z,1.73
2022-09-22T08:04:53.724Z,1.55
2022-09-22T08:07:41.730Z,1.42
2022-09-22T08:10:29.063Z,1.20
2022-09-22T08:13:16.259Z,1.58
2022-09-22T08:16:05.726Z,1.30
2022-09-22T08:18:56.005Z,1.00
2022-09-22T08:21:48.732Z,0.93
2022-09-22T08:24:37.167Z,1.17
2022-09-22T08:27:24.314Z,1.08
2022-09-22T08:30:12.091Z,1.10
2022-09-22T08:33:01.695Z,1.13
2022-09-22T08:35:55.345Z,0.95
2022-09-22T08:38:42.941Z,2.30
2022-09-22T08:41:39.715Z,1.02
2022-09-22T08:44:29.872Z,0.82
2022-09-22T08:47:41.118Z,0.70
2022-09-22T08:50:52.238Z,0.70
2022-09-22T08:53:45.811Z,0.80
2022-09-22T08:56:41.433Z,0.70
2022-09-22T08:59:33.997Z,0.60
2022-09-22T09:02:40.095Z,0.55
2022-09-22T09:05:51.222Z,0.65
2022-09-22T09:09:13.643Z,0.75
2022-09-22T09:12:25.475Z,0.70
2022-09-22T09:15:27.045Z,0.70
2022-09-22T09:18:17.561Z,2.08
2022-09-22T09:21:10.676Z,0.60
2022-09-22T09:27:19.744Z,0.68
2022-09-22T09:30:12.410Z,0.70
2022-09-22T09:33:02.794Z,0.90
2022-09-22T09:35:52.985Z,0.43
2022-09-22T09:38:48.882Z,0.55
2022-09-22T09:41:36.796Z,0.70
2022-09-22T09:44:29.719Z,0.52
2022-09-22T09:47:27.268Z,0.70
2022-09-22T09:50:16.042Z,0.55
2022-09-22T09:53:04.296Z,0.60
2022-09-22T09:55:52.813Z,0.70
2022-09-22T09:59:13.807Z,11.02
2022-09-22T10:02:02.974Z,0.60
2022-09-22T10:04:52.971Z,0.73
2022-09-22T10:07:43.095Z,0.70
2022-09-22T10:10:35.660Z,0.65
2022-09-22T10:13:34.854Z,0.70
2022-09-22T10:16:23.681Z,0.70
2022-09-22T10:19:27.107Z,0.80
2022-09-22T10:22:22.673Z,0.65
2022-09-22T10:25:21.601Z,0.68
2022-09-22T10:28:16.074Z,0.63
2022-09-22T10:31:06.945Z,0.85
2022-09-22T10:33:57.179Z,0.63
2022-09-22T10:36:47.657Z,0.70
2022-09-22T10:39:44.174Z,0.75
2022-09-22T10:42:35.897Z,0.85
2022-09-22T10:45:34.944Z,0.70
2022-09-22T10:48:31.483Z,0.70
2022-09-22T10:51:30.193Z,0.60
2022-09-22T10:54:50.082Z,0.70
2022-09-22T10:57:58.961Z,0.70
2022-09-22T11:00:47.343Z,0.60
2022-09-22T11:03:59.230Z,0.90
2022-09-22T11:07:23.129Z,0.90
2022-09-22T11:10:35.511Z,1.00
2022-09-22T11:13:34.959Z,0.90
2022-09-22T11:16:51.681Z,0.70
2022-09-22T11:20:01.640Z,0.82
2022-09-22T11:23:21.148Z,0.90
2022-09-22T11:26:37.806Z,0.80
2022-09-22T11:30:10.532Z,0.65
2022-09-22T11:33:31.715Z,0.50
2022-09-22T11:36:30.609Z,0.65
2022-09-22T11:39:21.406Z,0.55
2022-09-22T11:42:18.848Z,0.80
2022-09-22T11:45:19.077Z,0.60
2022-09-22T11:48:13.385Z,0.80
2022-09-22T11:51:14.026Z,0.50
2022-09-22T11:54:16.119Z,0.57
2022-09-22T11:57:08.484Z,0.50
2022-09-22T12:00:00.986Z,0.70
2022-09-22T12:03:03.002Z,0.70
2022-09-22T12:05:55.249Z,0.80
2022-09-22T12:08:47.067Z,0.63
2022-09-22T12:11:38.034Z,0.60
2022-09-22T12:14:27.444Z,0.80
2022-09-22T12:17:22.907Z,0.73
2022-09-22T12:20:27.182Z,0.70
2022-09-22T12:23:20.370Z,1.00
2022-09-22T12:26:09.517Z,0.70
2022-09-22T12:28:58.560Z,0.60
2022-09-22T12:31:48.324Z,0.57
2022-09-22T12:34:39.212Z,0.73
2022-09-22T12:37:31.976Z,0.70
2022-09-22T12:40:30.579Z,1.13
2022-09-22T12:43:21.128Z,0.90
2022-09-22T12:46:29.898Z,0.90
2022-09-22T12:49:20.063Z,0.60
2022-09-22T12:52:59.027Z,0.70
2022-09-22T12:55:46.489Z,0.63
2022-09-22T12:58:44.266Z,0.50
2022-09-22T13:01:35.626Z,0.68
2022-09-22T13:04:22.905Z,0.60
2022-09-22T13:07:35.439Z,0.50
2022-09-22T13:10:50.456Z,0.60
2022-09-22T13:13:42.601Z,0.60
2022-09-22T13:16:38.140Z,0.55
2022-09-22T13:19:25.486Z,0.55
2022-09-22T13:22:17.711Z,0.60
2022-09-22T13:25:25.286Z,0.50
2022-09-22T13:28:20.046Z,0.50
2022-09-22T13:31:13.492Z,0.57
2022-09-22T13:34:00.829Z,0.60
2022-09-22T13:36:49.499Z,0.60
2022-09-22T13:39:42.214Z,0.80
2022-09-22T13:42:32.631Z,0.55
2022-09-22T13:45:26.186Z,0.60
2022-09-22T13:48:17.660Z,0.70
2022-09-22T13:51:07.523Z,0.60
2022-09-22T13:53:57.497Z,0.68
2022-09-22T13:56:47.025Z,0.50
2022-09-22T13:59:39.457Z,0.60
2022-09-22T14:02:32.422Z,0.50
2022-09-22T14:05:22.891Z,0.60
2022-09-22T14:08:19.505Z,0.60
2022-09-22T14:11:12.374Z,0.50
2022-09-22T14:14:00.968Z,0.68
2022-09-22T14:16:50.877Z,0.52
2022-09-22T14:19:42.928Z,0.50
2022-09-22T14:22:33.585Z,0.50
2022-09-22T14:25:22.984Z,0.60
2022-09-22T14:28:19.413Z,0.52
2022-09-22T14:31:14.711Z,0.60
2022-09-22T14:34:06.162Z,0.60
2022-09-22T14:36:56.203Z,0.57
2022-09-22T14:39:45.170Z,0.50
2022-09-22T14:42:34.362Z,0.60
2022-09-22T14:45:22.953Z,0.60
2022-09-22T14:48:16.202Z,1.00
2022-09-22T14:51:08.251Z,0.90
2022-09-22T14:54:02.697Z,0.80
2022-09-22T14:56:50.737Z,0.60
2022-09-22T14:59:56.873Z,0.82
2022-09-22T15:02:49.542Z,1.15
2022-09-22T15:05:37.518Z,1.00
2022-09-22T15:08:27.714Z,0.80
2022-09-22T15:11:16.492Z,1.10
2022-09-22T15:14:41.938Z,1.00
2022-09-22T15:17:56.142Z,0.77
2022-09-22T15:20:46.600Z,0.98
2022-09-22T15:23:41.262Z,0.70
2022-09-22T15:26:32.775Z,0.82
2022-09-22T15:29:20.051Z,0.70
2022-09-22T15:32:07.404Z,0.90
2022-09-22T15:34:55.592Z,1.00
2022-09-22T15:37:45.481Z,1.40
2022-09-22T15:40:32.992Z,0.93
2022-09-22T15:43:23.410Z,0.80
2022-09-22T15:46:26.563Z,1.00
2022-09-22T15:49:17.943Z,0.93
2022-09-22T15:52:05.355Z,1.40
2022-09-22T15:54:52.826Z,1.40
2022-09-22T15:57:41.048Z,1.30
2022-09-22T16:00:29.358Z,1.52
2022-09-22T16:03:22.335Z,1.48
2022-09-22T16:06:13.098Z,1.65
2022-09-22T16:09:00.534Z,1.60
2022-09-22T16:11:48.517Z,1.67
2022-09-22T16:14:36.641Z,1.60
2022-09-22T16:17:25.241Z,1.40
2022-09-22T16:20:13.473Z,2.13
2022-09-22T16:23:00.785Z,1.75
2022-09-22T16:25:53.903Z,2.00
2022-09-22T16:28:41.082Z,1.95
2022-09-22T16:31:29.516Z,1.85
2022-09-22T16:34:18.086Z,1.95
2022-09-22T16:37:05.470Z,2.25
2022-09-22T16:39:52.316Z,2.45
2022-09-22T16:42:39.825Z,2.65
2022-09-22T16:45:44.298Z,2.92
2022-09-22T16:48:32.521Z,2.80
2022-09-22T16:51:20.802Z,2.20
2022-09-22T16:54:10.431Z,2.10
2022-09-22T16:56:57.739Z,2.10
2022-09-22T16:59:45.588Z,1.73
2022-09-22T17:02:33.029Z,1.65
2022-09-22T17:05:20.173Z,1.65
2022-09-22T17:08:08.805Z,1.77
2022-09-22T17:10:55.835Z,1.90
2022-09-22T17:13:44.218Z,2.00
2022-09-22T17:16:32.483Z,1.88
2022-09-22T17:19:21.105Z,1.88
2022-09-22T17:22:08.065Z,2.10
2022-09-22T17:24:57.517Z,2.10
2022-09-22T17:27:44.531Z,2.38
2022-09-22T17:30:31.822Z,2.63
2022-09-22T17:33:19.218Z,2.60
2022-09-22T17:36:07.190Z,2.90
2022-09-22T17:38:56.342Z,3.00
2022-09-22T17:41:46.996Z,3.58
2022-09-22T17:44:35.554Z,3.17
2022-09-22T17:47:40.389Z,2.90
2022-09-22T17:50:44.969Z,2.80
2022-09-22T17:53:49.409Z,3.10
2022-09-22T17:56:36.430Z,2.50
2022-09-22T17:59:24.932Z,2.50
2022-09-22T18:02:15.239Z,2.92
2022-09-22T18:05:02.130Z,2.85
2022-09-22T18:07:53.514Z,2.90
2022-09-22T18:10:41.806Z,3.20
2022-09-22T18:13:29.026Z,3.25
2022-09-22T18:16:29.199Z,3.22
2022-09-22T18:19:16.494Z,3.70
2022-09-22T18:22:06.326Z,3.80
2022-09-22T18:24:55.529Z,3.28
2022-09-22T18:27:42.749Z,4.03
2022-09-22T18:30:31.009Z,4.85
2022-09-22T18:33:19.452Z,3.78
2022-09-22T18:36:06.858Z,4.50
2022-09-22T18:38:54.645Z,7.13
2022-09-22T18:41:42.011Z,9.70
2022-09-22T18:44:29.105Z,9.93
2022-09-22T18:47:18.774Z,8.50
2022-09-22T18:50:08.401Z,8.27
2022-09-22T18:52:56.631Z,7.47
2022-09-22T18:55:44.691Z,7.10
2022-09-22T18:58:32.994Z,6.18
2022-09-22T19:01:20.611Z,5.30
2022-09-22T19:04:13.056Z,5.78
2022-09-22T19:07:18.910Z,4.70
2022-09-22T19:10:07.838Z,5.07
2022-09-22T19:12:55.097Z,5.50
2022-09-22T19:15:43.453Z,5.20
2022-09-22T19:18:31.517Z,5.20
2022-09-22T19:21:18.707Z,5.13
2022-09-22T19:24:10.895Z,8.13
2022-09-22T19:26:58.005Z,9.50
2022-09-22T19:29:45.519Z,9.77
2022-09-22T19:32:32.823Z,9.73
2022-09-22T19:35:20.502Z,10.17
2022-09-22T19:38:07.513Z,9.90
2022-09-22T19:40:56.222Z,9.80
2022-09-22T19:43:43.730Z,12.80
2022-09-22T19:46:31.487Z,13.23
2022-09-22T19:49:25.445Z,13.90
2022-09-22T19:52:13.358Z,14.77
2022-09-22T19:55:00.455Z,12.20
2022-09-22T19:57:49.888Z,14.23
2022-09-22T20:00:37.171Z,13.87
2022-09-22T20:03:24.236Z,13.60
2022-09-22T20:06:11.471Z,13.27
2022-09-22T20:09:02.660Z,13.20
2022-09-22T20:11:52.283Z,13.57
2022-09-22T20:14:40.691Z,14.20
2022-09-22T20:17:28.599Z,13.20
2022-09-22T20:20:17.249Z,13.53
2022-09-22T20:23:05.110Z,15.17
2022-09-22T20:25:53.222Z,14.37
2022-09-22T20:28:41.260Z,14.70
2022-09-22T20:31:29.889Z,14.07
2022-09-22T20:34:17.137Z,14.63
2022-09-22T20:37:04.517Z,14.20
2022-09-22T20:39:52.257Z,14.80
2022-09-22T20:42:39.684Z,14.60
2022-09-22T20:45:27.180Z,14.47
2022-09-22T20:48:18.565Z,14.57
2022-09-22T20:51:06.080Z,13.00
2022-09-22T20:53:53.388Z,13.43
2022-09-22T20:56:42.928Z,14.40
2022-09-22T20:59:31.552Z,13.40
2022-09-22T21:02:19.198Z,13.20
2022-09-22T21:05:08.765Z,13.57
2022-09-22T21:08:16.286Z,13.50
2022-09-22T21:11:02.635Z,12.73
2022-09-22T21:13:53.383Z,11.77
2022-09-22T21:16:40.791Z,12.20
2022-09-22T21:19:28.200Z,12.43
2022-09-22T21:22:17.294Z,12.20
2022-09-22T21:25:05.042Z,11.70
2022-09-22T21:27:52.494Z,12.37
2022-09-22T21:30:39.962Z,10.93
2022-09-22T21:33:28.401Z,11.13
2022-09-22T21:36:17.355Z,12.70
2022-09-22T21:39:06.429Z,14.13
2022-09-22T21:41:53.931Z,13.37
2022-09-22T21:44:41.531Z,12.53
2022-09-22T21:47:29.110Z,12.63
2022-09-22T21:50:16.927Z,12.43
2022-09-22T21:53:04.135Z,12.67
2022-09-22T21:55:59.278Z,13.23
2022-09-22T21:58:48.081Z,12.67
2022-09-22T22:01:37.328Z,12.87
2022-09-22T22:04:24.573Z,13.00
2022-09-22T22:07:12.785Z,13.17
2022-09-22T22:09:59.814Z,12.50
2022-09-22T22:12:48.449Z,12.27
2022-09-22T22:15:36.019Z,13.43
2022-09-22T22:18:22.962Z,13.00
2022-09-22T22:21:12.374Z,12.67
2022-09-22T22:24:21.569Z,12.13
2022-09-22T22:27:10.740Z,11.07
2022-09-22T22:29:59.075Z,11.20
2022-09-22T22:32:46.527Z,9.93
2022-09-22T22:35:33.850Z,10.70
2022-09-22T22:38:22.131Z,10.73
2022-09-22T22:41:11.499Z,11.60
2022-09-22T22:43:58.881Z,10.77
2022-09-22T22:46:47.478Z,10.20
2022-09-22T22:49:34.420Z,9.93
2022-09-22T22:52:22.122Z,10.00
2022-09-22T22:55:10.309Z,10.07
2022-09-22T22:57:57.724Z,9.40
2022-09-22T23:00:45.346Z,9.73
2022-09-22T23:03:33.570Z,9.87
2022-09-22T23:06:23.292Z,10.03
2022-09-22T23:09:13.544Z,10.10
2022-09-22T23:12:00.741Z,9.53
2022-09-22T23:14:48.209Z,10.37
2022-09-22T23:17:36.019Z,10.33
2022-09-22T23:20:25.272Z,9.27
2022-09-22T23:23:12.335Z,9.43
2022-09-22T23:25:59.563Z,9.47
2022-09-22T23:28:46.606Z,9.77
2022-09-22T23:31:34.257Z,9.63
2022-09-22T23:34:21.820Z,9.53
2022-09-22T23:37:10.557Z,9.17
2022-09-22T23:39:57.997Z,9.30
2022-09-22T23:42:45.205Z,9.10
2022-09-22T23:45:33.264Z,8.47
2022-09-22T23:48:22.159Z,9.07
2022-09-22T23:51:10.234Z,8.57
2022-09-22T23:53:59.168Z,8.60
2022-09-22T23:56:46.895Z,9.27
2022-09-22T23:59:34.296Z,8.50
